METAR Data
IDs: Format: Raw Decoded Include TAF

Data at: 1551 UTC 03 Dec 2021

KRDM 031456Z 00000KT 10SM CLR M03/M04 A3020 RMK AO2 SLP243 I1000 I3000 T10281044 53004
KRDM 031356Z 05003KT 10SM CLR M01/M02 A3018 RMK AO2 SLP234 T10061022
KRDM 031256Z AUTO 00000KT 10SM CLR M02/M04 A3019 RMK AO2 SLP234 T10221039
KRDM 031156Z AUTO 00000KT 10SM CLR 00/M02 A3018 RMK AO2 SLP227 T00001017 10017 21006 58008
KRDM 031056Z AUTO 19003KT 10SM CLR 01/M01 A3020 RMK AO2 SLP229 T00061011
KRDM 030956Z AUTO 17004KT 10SM CLR 00/M02 A3021 RMK AO2 SLP232 T00001017
KRDM 030856Z AUTO 00000KT 10SM CLR 01/M01 A3021 RMK AO2 SLP234 T00111011 57004
KRDM 030756Z AUTO 16003KT 10SM CLR 00/M02 A3021 RMK AO2 SLP236 T00001017 401561006
KRDM 030656Z AUTO 00000KT 10SM CLR 01/M01 A3022 RMK AO2 SLP240 T00061011
KRDM 030556Z AUTO 00000KT 10SM CLR 02/M01 A3022 RMK AO2 SLP240 T00171006 10133 21006 53004
KRDM 030456Z 21003KT 10SM CLR 00/M01 A3022 RMK AO2 SLP244 T00001011
KRDM 030356Z 00000KT 10SM CLR 03/01 A3021 RMK AO2 SLP242 T00330006
KRDM 030256Z 00000KT 10SM CLR 05/01 A3021 RMK AO2 SLP241 T00500011 53008
KRDM 030156Z 03004KT 10SM CLR 06/02 A3020 RMK AO2 SLP233 T00560022
KRDM 030056Z 02004KT 10SM CLR 09/03 A3020 RMK AO2 SLP231 T00940033
KRDM 022356Z 32009KT 10SM CLR 13/03 A3019 RMK AO2 SLP222 T01330033 10156 20111 55000
KRDM 022256Z 34008KT 10SM CLR 15/03 A3018 RMK AO2 SLP217 T01500033
KRDM 022156Z VRB04KT 10SM CLR 15/02 A3017 RMK AO2 SLP213 T01500022
KRDM 022056Z 35005KT 10SM CLR 13/02 A3019 RMK AO2 SLP222 T01330017 58011
KRDM 021956Z 34004KT 10SM CLR 13/02 A3020 RMK AO2 SLP225 T01330017
KRDM 021856Z 01004KT 10SM CLR 12/02 A3022 RMK AO2 SLP233 T01220022
KRDM 021756Z 02003KT 10SM CLR 11/04 A3022 RMK AO2 SLP235 T01110044 10111 20028 52019
KRDM 021656Z 26003KT 10SM CLR 07/04 A3021 RMK AO2 SLP232 T00720044
KRDM 021556Z 00000KT 10SM CLR 04/03 A3018 RMK AO2 SLP226 T00440028
KRDM 021456Z 03005KT 10SM CLR 04/02 A3016 RMK AO2 SLP216 T00390022 53005
KRDM 021356Z 12004KT 10SM CLR 05/03 A3014 RMK AO2 SLP208 T00500028
KRDM 021256Z AUTO 16004KT 10SM CLR 04/02 A3015 RMK AO2 SLP208 T00390022
KRDM 021156Z AUTO 09003KT 10SM CLR 04/02 A3014 RMK AO2 SLP201 T00390022 10078 20033 58005
KRDM 021056Z AUTO 00000KT 10SM CLR 05/03 A3016 RMK AO2 SLP203 T00500028
KRDM 020956Z AUTO 02004KT 10SM CLR 06/03 A3015 RMK AO2 SLP201 T00560033
KRDM 020856Z AUTO 08003KT 10SM CLR 05/03 A3016 RMK AO2 SLP206 T00500028 58003
KRDM 020756Z AUTO 18005KT 10SM CLR 07/04 A3017 RMK AO2 SLP207 T00720039 402220017
KRDM 020656Z AUTO 17005KT 10SM CLR 07/04 A3018 RMK AO2 SLP212 T00670039
KRDM 020556Z AUTO 16004KT 10SM CLR 07/03 A3017 RMK AO2 SLP215 T00670033 10200 20061 53008
KRDM 020456Z 17005KT 10SM CLR 07/03 A3016 RMK AO2 SLP213 T00670033
KRDM 020356Z 00000KT 10SM CLR 08/04 A3015 RMK AO2 SLP217 T00780039